sensor_id;sensor_type;location;lat;lon;timestamp;temperature;humidity
71291;DHT22;59073;51.994;4.448;2023-12-29T00:01:09;10.45;88.13
71291;DHT22;59073;51.994;4.448;2023-12-29T00:03:35;10.35;88.16
71291;DHT22;59073;51.994;4.448;2023-12-29T00:06:02;10.24;88.70
71291;DHT22;59073;51.994;4.448;2023-12-29T00:08:28;10.34;88.43
71291;DHT22;59073;51.994;4.448;2023-12-29T00:10:55;10.41;88.14
71291;DHT22;59073;51.994;4.448;2023-12-29T00:13:20;10.44;87.76
71291;DHT22;59073;51.994;4.448;2023-12-29T00:15:52;10.42;87.54
71291;DHT22;59073;51.994;4.448;2023-12-29T00:18:18;10.55;87.23
71291;DHT22;59073;51.994;4.448;2023-12-29T00:20:43;10.63;87.34
71291;DHT22;59073;51.994;4.448;2023-12-29T00:23:09;10.58;87.26
71291;DHT22;59073;51.994;4.448;2023-12-29T00:25:38;10.60;87.04
71291;DHT22;59073;51.994;4.448;2023-12-29T00:28:04;10.73;86.65
71291;DHT22;59073;51.994;4.448;2023-12-29T00:30:30;10.72;85.93
71291;DHT22;59073;51.994;4.448;2023-12-29T00:32:56;10.82;86.43
71291;DHT22;59073;51.994;4.448;2023-12-29T00:35:21;10.75;86.60
71291;DHT22;59073;51.994;4.448;2023-12-29T00:37:47;10.79;86.23
71291;DHT22;59073;51.994;4.448;2023-12-29T00:40:12;10.83;86.33
71291;DHT22;59073;51.994;4.448;2023-12-29T00:42:38;10.90;85.85
71291;DHT22;59073;51.994;4.448;2023-12-29T00:45:04;10.75;86.17
71291;DHT22;59073;51.994;4.448;2023-12-29T00:47:30;10.76;86.59
71291;DHT22;59073;51.994;4.448;2023-12-29T00:49:55;10.68;86.45
71291;DHT22;59073;51.994;4.448;2023-12-29T00:52:21;10.76;86.55
71291;DHT22;59073;51.994;4.448;2023-12-29T00:54:47;10.70;86.61
71291;DHT22;59073;51.994;4.448;2023-12-29T00:57:12;10.63;86.92
71291;DHT22;59073;51.994;4.448;2023-12-29T00:59:38;10.69;87.04
71291;DHT22;59073;51.994;4.448;2023-12-29T01:02:05;10.82;86.35
71291;DHT22;59073;51.994;4.448;2023-12-29T01:04:31;10.88;86.32
71291;DHT22;59073;51.994;4.448;2023-12-29T01:06:56;10.77;86.27
71291;DHT22;59073;51.994;4.448;2023-12-29T01:09:22;10.76;86.19
71291;DHT22;59073;51.994;4.448;2023-12-29T01:11:47;10.69;86.35
71291;DHT22;59073;51.994;4.448;2023-12-29T01:14:13;10.75;86.32
71291;DHT22;59073;51.994;4.448;2023-12-29T01:16:41;10.77;86.23
71291;DHT22;59073;51.994;4.448;2023-12-29T01:19:07;10.72;86.46
71291;DHT22;59073;51.994;4.448;2023-12-29T01:21:32;10.65;86.49
71291;DHT22;59073;51.994;4.448;2023-12-29T01:24:02;10.63;86.77
71291;DHT22;59073;51.994;4.448;2023-12-29T01:26:36;10.66;86.41
71291;DHT22;59073;51.994;4.448;2023-12-29T01:29:02;10.69;86.26
71291;DHT22;59073;51.994;4.448;2023-12-29T01:31:31;10.76;86.40
71291;DHT22;59073;51.994;4.448;2023-12-29T01:33:57;10.92;86.00
71291;DHT22;59073;51.994;4.448;2023-12-29T01:36:22;10.92;85.55
71291;DHT22;59073;51.994;4.448;2023-12-29T01:38:47;10.90;85.45
71291;DHT22;59073;51.994;4.448;2023-12-29T01:41:13;10.70;86.47
71291;DHT22;59073;51.994;4.448;2023-12-29T01:46:20;10.76;86.84
71291;DHT22;59073;51.994;4.448;2023-12-29T01:48:45;10.86;86.47
71291;DHT22;59073;51.994;4.448;2023-12-29T01:51:11;10.88;86.47
71291;DHT22;59073;51.994;4.448;2023-12-29T01:53:37;10.82;86.46
71291;DHT22;59073;51.994;4.448;2023-12-29T01:56:02;10.65;86.79
71291;DHT22;59073;51.994;4.448;2023-12-29T01:58:29;10.65;87.06
71291;DHT22;59073;51.994;4.448;2023-12-29T02:00:55;10.69;86.94
71291;DHT22;59073;51.994;4.448;2023-12-29T02:03:21;10.75;87.05
71291;DHT22;59073;51.994;4.448;2023-12-29T02:05:48;10.76;86.79
71291;DHT22;59073;51.994;4.448;2023-12-29T02:08:14;10.80;86.40
71291;DHT22;59073;51.994;4.448;2023-12-29T02:10:40;10.80;86.56
71291;DHT22;59073;51.994;4.448;2023-12-29T02:13:05;10.80;86.88
71291;DHT22;59073;51.994;4.448;2023-12-29T02:15:31;10.93;86.54
71291;DHT22;59073;51.994;4.448;2023-12-29T02:18:02;10.83;86.63
71291;DHT22;59073;51.994;4.448;2023-12-29T02:20:29;10.90;86.82
71291;DHT22;59073;51.994;4.448;2023-12-29T02:22:54;10.96;86.23
71291;DHT22;59073;51.994;4.448;2023-12-29T02:25:20;10.99;86.18
71291;DHT22;59073;51.994;4.448;2023-12-29T02:30:35;10.96;86.38
71291;DHT22;59073;51.994;4.448;2023-12-29T02:33:05;10.97;86.22
71291;DHT22;59073;51.994;4.448;2023-12-29T02:35:39;11.07;86.10
71291;DHT22;59073;51.994;4.448;2023-12-29T02:38:05;11.07;85.63
71291;DHT22;59073;51.994;4.448;2023-12-29T02:40:30;11.04;85.80
71291;DHT22;59073;51.994;4.448;2023-12-29T02:42:56;10.99;86.21
71291;DHT22;59073;51.994;4.448;2023-12-29T02:45:21;11.04;86.48
71291;DHT22;59073;51.994;4.448;2023-12-29T02:47:48;11.07;85.96
71291;DHT22;59073;51.994;4.448;2023-12-29T02:50:14;11.01;86.48
71291;DHT22;59073;51.994;4.448;2023-12-29T02:52:39;11.06;86.35
71291;DHT22;59073;51.994;4.448;2023-12-29T02:55:05;11.11;86.35
71291;DHT22;59073;51.994;4.448;2023-12-29T02:57:30;11.23;86.03
71291;DHT22;59073;51.994;4.448;2023-12-29T02:59:56;11.30;85.58
71291;DHT22;59073;51.994;4.448;2023-12-29T03:02:23;11.37;85.51
71291;DHT22;59073;51.994;4.448;2023-12-29T03:04:49;11.30;85.24
71291;DHT22;59073;51.994;4.448;2023-12-29T03:07:14;11.34;85.24
71291;DHT22;59073;51.994;4.448;2023-12-29T03:09:40;11.37;84.86
71291;DHT22;59073;51.994;4.448;2023-12-29T03:12:06;11.31;85.08
71291;DHT22;59073;51.994;4.448;2023-12-29T03:14:31;11.45;84.57
71291;DHT22;59073;51.994;4.448;2023-12-29T03:16:57;11.51;84.45
71291;DHT22;59073;51.994;4.448;2023-12-29T03:19:23;11.67;85.08
71291;DHT22;59073;51.994;4.448;2023-12-29T03:21:48;11.69;85.27
71291;DHT22;59073;51.994;4.448;2023-12-29T03:24:14;11.68;85.92
71291;DHT22;59073;51.994;4.448;2023-12-29T03:26:39;11.67;86.38
71291;DHT22;59073;51.994;4.448;2023-12-29T03:29:05;11.67;86.68
71291;DHT22;59073;51.994;4.448;2023-12-29T03:31:30;11.62;86.23
71291;DHT22;59073;51.994;4.448;2023-12-29T03:33:56;11.62;85.89
71291;DHT22;59073;51.994;4.448;2023-12-29T03:36:21;11.54;85.87
71291;DHT22;59073;51.994;4.448;2023-12-29T03:38:47;11.45;85.61
71291;DHT22;59073;51.994;4.448;2023-12-29T03:41:12;11.34;85.81
71291;DHT22;59073;51.994;4.448;2023-12-29T03:43:37;11.34;85.45
71291;DHT22;59073;51.994;4.448;2023-12-29T03:46:03;11.20;85.04
71291;DHT22;59073;51.994;4.448;2023-12-29T03:48:39;11.28;84.94
71291;DHT22;59073;51.994;4.448;2023-12-29T03:51:05;11.31;84.25
71291;DHT22;59073;51.994;4.448;2023-12-29T03:53:30;11.30;83.92
71291;DHT22;59073;51.994;4.448;2023-12-29T03:55:56;11.34;83.25
71291;DHT22;59073;51.994;4.448;2023-12-29T03:58:21;11.37;82.96
71291;DHT22;59073;51.994;4.448;2023-12-29T04:00:47;11.30;83.43
71291;DHT22;59073;51.994;4.448;2023-12-29T04:03:12;11.32;83.15
71291;DHT22;59073;51.994;4.448;2023-12-29T04:05:37;11.38;82.69
71291;DHT22;59073;51.994;4.448;2023-12-29T04:08:03;11.45;82.63
71291;DHT22;59073;51.994;4.448;2023-12-29T04:10:29;11.38;83.00
71291;DHT22;59073;51.994;4.448;2023-12-29T04:12:54;11.31;83.04
71291;DHT22;59073;51.994;4.448;2023-12-29T04:15:20;11.38;83.08
71291;DHT22;59073;51.994;4.448;2023-12-29T04:17:45;11.45;82.41
71291;DHT22;59073;51.994;4.448;2023-12-29T04:20:11;11.42;82.38
71291;DHT22;59073;51.994;4.448;2023-12-29T04:22:36;11.45;81.82
71291;DHT22;59073;51.994;4.448;2023-12-29T04:25:02;11.45;81.76
71291;DHT22;59073;51.994;4.448;2023-12-29T04:27:27;11.44;82.19
71291;DHT22;59073;51.994;4.448;2023-12-29T04:29:53;11.44;81.85
71291;DHT22;59073;51.994;4.448;2023-12-29T04:32:18;11.31;82.39
71291;DHT22;59073;51.994;4.448;2023-12-29T04:34:43;11.31;82.39
71291;DHT22;59073;51.994;4.448;2023-12-29T04:37:09;11.27;82.42
71291;DHT22;59073;51.994;4.448;2023-12-29T04:39:34;11.31;81.76
71291;DHT22;59073;51.994;4.448;2023-12-29T04:42:00;11.32;81.52
71291;DHT22;59073;51.994;4.448;2023-12-29T04:44:25;11.28;81.55
71291;DHT22;59073;51.994;4.448;2023-12-29T04:46:51;11.34;81.27
71291;DHT22;59073;51.994;4.448;2023-12-29T04:49:16;11.37;81.32
71291;DHT22;59073;51.994;4.448;2023-12-29T04:51:42;11.40;81.20
71291;DHT22;59073;51.994;4.448;2023-12-29T04:54:07;11.34;81.60
71291;DHT22;59073;51.994;4.448;2023-12-29T04:56:32;11.31;81.93
71291;DHT22;59073;51.994;4.448;2023-12-29T04:58:58;11.32;81.99
71291;DHT22;59073;51.994;4.448;2023-12-29T05:01:24;11.40;81.98
71291;DHT22;59073;51.994;4.448;2023-12-29T05:03:49;11.32;82.36
71291;DHT22;59073;51.994;4.448;2023-12-29T05:06:15;11.44;82.30
71291;DHT22;59073;51.994;4.448;2023-12-29T05:08:40;11.48;82.16
71291;DHT22;59073;51.994;4.448;2023-12-29T05:11:06;11.54;82.02
71291;DHT22;59073;51.994;4.448;2023-12-29T05:13:31;11.52;81.93
71291;DHT22;59073;51.994;4.448;2023-12-29T05:15:57;11.47;81.88
71291;DHT22;59073;51.994;4.448;2023-12-29T05:18:22;11.50;82.04
71291;DHT22;59073;51.994;4.448;2023-12-29T05:20:48;11.41;82.04
71291;DHT22;59073;51.994;4.448;2023-12-29T05:23:13;11.34;82.62
71291;DHT22;59073;51.994;4.448;2023-12-29T05:25:39;11.32;82.92
71291;DHT22;59073;51.994;4.448;2023-12-29T05:28:04;11.32;83.05
71291;DHT22;59073;51.994;4.448;2023-12-29T05:30:30;11.31;83.00
71291;DHT22;59073;51.994;4.448;2023-12-29T05:32:57;11.34;82.99
71291;DHT22;59073;51.994;4.448;2023-12-29T05:35:22;11.20;82.83
71291;DHT22;59073;51.994;4.448;2023-12-29T05:37:47;11.27;82.54
71291;DHT22;59073;51.994;4.448;2023-12-29T05:40:13;11.26;82.42
71291;DHT22;59073;51.994;4.448;2023-12-29T05:42:38;11.28;82.27
71291;DHT22;59073;51.994;4.448;2023-12-29T05:45:04;11.24;82.29
71291;DHT22;59073;51.994;4.448;2023-12-29T05:47:30;11.28;82.31
71291;DHT22;59073;51.994;4.448;2023-12-29T05:49:55;11.24;82.58
71291;DHT22;59073;51.994;4.448;2023-12-29T05:52:21;11.16;82.93
71291;DHT22;59073;51.994;4.448;2023-12-29T05:54:46;11.16;82.83
71291;DHT22;59073;51.994;4.448;2023-12-29T05:57:12;11.17;82.95
71291;DHT22;59073;51.994;4.448;2023-12-29T05:59:37;11.24;82.63
71291;DHT22;59073;51.994;4.448;2023-12-29T06:02:03;11.28;82.69
71291;DHT22;59073;51.994;4.448;2023-12-29T06:04:29;11.21;82.94
71291;DHT22;59073;51.994;4.448;2023-12-29T06:06:54;11.20;83.14
71291;DHT22;59073;51.994;4.448;2023-12-29T06:09:19;11.34;82.71
71291;DHT22;59073;51.994;4.448;2023-12-29T06:11:45;11.28;82.95
71291;DHT22;59073;51.994;4.448;2023-12-29T06:14:11;11.26;82.92
71291;DHT22;59073;51.994;4.448;2023-12-29T06:16:36;11.30;83.05
71291;DHT22;59073;51.994;4.448;2023-12-29T06:19:01;11.16;83.30
71291;DHT22;59073;51.994;4.448;2023-12-29T06:21:27;11.13;83.67
71291;DHT22;59073;51.994;4.448;2023-12-29T06:23:52;11.09;83.94
71291;DHT22;59073;51.994;4.448;2023-12-29T06:26:19;11.11;84.28
71291;DHT22;59073;51.994;4.448;2023-12-29T06:28:46;11.21;84.11
71291;DHT22;59073;51.994;4.448;2023-12-29T06:31:11;11.19;84.15
71291;DHT22;59073;51.994;4.448;2023-12-29T06:33:41;11.16;84.35
71291;DHT22;59073;51.994;4.448;2023-12-29T06:36:07;11.06;84.67
71291;DHT22;59073;51.994;4.448;2023-12-29T06:38:33;11.06;84.58
71291;DHT22;59073;51.994;4.448;2023-12-29T06:41:01;11.14;84.64
71291;DHT22;59073;51.994;4.448;2023-12-29T06:43:26;11.14;84.63
71291;DHT22;59073;51.994;4.448;2023-12-29T06:45:52;11.14;84.83
71291;DHT22;59073;51.994;4.448;2023-12-29T06:48:17;11.10;84.86
71291;DHT22;59073;51.994;4.448;2023-12-29T06:50:43;11.16;84.70
71291;DHT22;59073;51.994;4.448;2023-12-29T06:53:08;11.01;85.09
71291;DHT22;59073;51.994;4.448;2023-12-29T06:55:34;11.01;85.38
71291;DHT22;59073;51.994;4.448;2023-12-29T06:57:59;11.09;85.05
71291;DHT22;59073;51.994;4.448;2023-12-29T07:00:25;11.14;85.16
71291;DHT22;59073;51.994;4.448;2023-12-29T07:02:50;11.07;85.20
71291;DHT22;59073;51.994;4.448;2023-12-29T07:05:16;11.23;85.03
71291;DHT22;59073;51.994;4.448;2023-12-29T07:07:41;11.26;84.63
71291;DHT22;59073;51.994;4.448;2023-12-29T07:10:07;11.30;84.48
71291;DHT22;59073;51.994;4.448;2023-12-29T07:12:33;11.32;84.53
71291;DHT22;59073;51.994;4.448;2023-12-29T07:14:58;11.45;84.08
71291;DHT22;59073;51.994;4.448;2023-12-29T07:17:24;11.47;84.17
71291;DHT22;59073;51.994;4.448;2023-12-29T07:19:49;11.44;84.36
71291;DHT22;59073;51.994;4.448;2023-12-29T07:22:15;11.52;84.34
71291;DHT22;59073;51.994;4.448;2023-12-29T07:24:41;11.47;84.53
71291;DHT22;59073;51.994;4.448;2023-12-29T07:27:06;11.47;84.40
71291;DHT22;59073;51.994;4.448;2023-12-29T07:29:33;11.52;84.35
71291;DHT22;59073;51.994;4.448;2023-12-29T07:31:59;11.44;84.65
71291;DHT22;59073;51.994;4.448;2023-12-29T07:34:24;11.32;84.75
71291;DHT22;59073;51.994;4.448;2023-12-29T07:36:50;11.34;84.94
71291;DHT22;59073;51.994;4.448;2023-12-29T07:39:16;11.42;84.38
71291;DHT22;59073;51.994;4.448;2023-12-29T07:41:42;11.37;84.69
71291;DHT22;59073;51.994;4.448;2023-12-29T07:44:09;11.30;84.63
71291;DHT22;59073;51.994;4.448;2023-12-29T07:46:35;11.47;84.09
71291;DHT22;59073;51.994;4.448;2023-12-29T07:49:00;11.47;83.88
71291;DHT22;59073;51.994;4.448;2023-12-29T07:51:26;11.40;84.07
71291;DHT22;59073;51.994;4.448;2023-12-29T07:53:51;11.30;84.15
71291;DHT22;59073;51.994;4.448;2023-12-29T07:56:17;11.34;83.86
71291;DHT22;59073;51.994;4.448;2023-12-29T07:58:42;11.21;84.59
71291;DHT22;59073;51.994;4.448;2023-12-29T08:01:09;11.19;84.68
71291;DHT22;59073;51.994;4.448;2023-12-29T08:03:35;11.26;84.47
71291;DHT22;59073;51.994;4.448;2023-12-29T08:06:01;11.03;85.29
71291;DHT22;59073;51.994;4.448;2023-12-29T08:08:27;11.06;85.69
71291;DHT22;59073;51.994;4.448;2023-12-29T08:10:52;11.06;86.38
71291;DHT22;59073;51.994;4.448;2023-12-29T08:13:18;11.10;86.41
71291;DHT22;59073;51.994;4.448;2023-12-29T08:15:43;11.04;86.88
71291;DHT22;59073;51.994;4.448;2023-12-29T08:18:09;11.01;87.13
71291;DHT22;59073;51.994;4.448;2023-12-29T08:20:34;11.00;86.99
71291;DHT22;59073;51.994;4.448;2023-12-29T08:23:00;11.06;87.19
71291;DHT22;59073;51.994;4.448;2023-12-29T08:25:28;11.19;86.62
71291;DHT22;59073;51.994;4.448;2023-12-29T08:27:54;11.04;86.50
71291;DHT22;59073;51.994;4.448;2023-12-29T08:30:20;11.03;86.49
71291;DHT22;59073;51.994;4.448;2023-12-29T08:32:46;11.14;86.09
71291;DHT22;59073;51.994;4.448;2023-12-29T08:35:11;11.20;85.92
71291;DHT22;59073;51.994;4.448;2023-12-29T08:37:37;11.24;85.63
71291;DHT22;59073;51.994;4.448;2023-12-29T08:40:02;11.19;85.44
71291;DHT22;59073;51.994;4.448;2023-12-29T08:42:28;11.09;85.75
71291;DHT22;59073;51.994;4.448;2023-12-29T08:44:54;11.16;85.74
71291;DHT22;59073;51.994;4.448;2023-12-29T08:47:19;11.24;85.26
71291;DHT22;59073;51.994;4.448;2023-12-29T08:49:45;11.27;85.04
71291;DHT22;59073;51.994;4.448;2023-12-29T08:52:11;11.24;84.98
71291;DHT22;59073;51.994;4.448;2023-12-29T08:54:37;11.35;85.05
71291;DHT22;59073;51.994;4.448;2023-12-29T08:57:03;11.44;84.91
71291;DHT22;59073;51.994;4.448;2023-12-29T08:59:29;11.47;84.65
71291;DHT22;59073;51.994;4.448;2023-12-29T09:01:54;11.55;84.58
71291;DHT22;59073;51.994;4.448;2023-12-29T09:04:20;11.55;84.67
71291;DHT22;59073;51.994;4.448;2023-12-29T09:06:45;11.64;84.70
71291;DHT22;59073;51.994;4.448;2023-12-29T09:09:11;11.75;84.05
71291;DHT22;59073;51.994;4.448;2023-12-29T09:11:39;11.71;83.95
71291;DHT22;59073;51.994;4.448;2023-12-29T09:14:05;11.82;83.82
71291;DHT22;59073;51.994;4.448;2023-12-29T09:16:31;11.74;83.65
71291;DHT22;59073;51.994;4.448;2023-12-29T09:18:56;11.61;84.14
71291;DHT22;59073;51.994;4.448;2023-12-29T09:21:21;11.64;84.36
71291;DHT22;59073;51.994;4.448;2023-12-29T09:23:48;11.69;83.75
71291;DHT22;59073;51.994;4.448;2023-12-29T09:26:13;11.79;83.82
71291;DHT22;59073;51.994;4.448;2023-12-29T09:28:42;11.79;83.56
71291;DHT22;59073;51.994;4.448;2023-12-29T09:31:11;11.78;83.84
71291;DHT22;59073;51.994;4.448;2023-12-29T09:33:37;11.82;83.50
71291;DHT22;59073;51.994;4.448;2023-12-29T09:36:03;11.81;83.53
71291;DHT22;59073;51.994;4.448;2023-12-29T09:38:29;11.95;83.04
71291;DHT22;59073;51.994;4.448;2023-12-29T09:40:59;11.95;83.08
71291;DHT22;59073;51.994;4.448;2023-12-29T09:43:31;11.96;83.33
71291;DHT22;59073;51.994;4.448;2023-12-29T09:45:58;11.96;83.27
71291;DHT22;59073;51.994;4.448;2023-12-29T09:48:26;11.99;83.01
71291;DHT22;59073;51.994;4.448;2023-12-29T09:50:52;12.05;82.85
71291;DHT22;59073;51.994;4.448;2023-12-29T09:53:20;12.13;82.51
71291;DHT22;59073;51.994;4.448;2023-12-29T09:55:49;12.12;82.42
71291;DHT22;59073;51.994;4.448;2023-12-29T09:58:15;12.13;82.53
71291;DHT22;59073;51.994;4.448;2023-12-29T10:00:42;12.19;82.31
71291;DHT22;59073;51.994;4.448;2023-12-29T10:03:08;12.23;82.15
71291;DHT22;59073;51.994;4.448;2023-12-29T10:05:34;12.29;82.15
71291;DHT22;59073;51.994;4.448;2023-12-29T10:08:02;12.28;82.39
71291;DHT22;59073;51.994;4.448;2023-12-29T10:10:30;12.32;82.27
71291;DHT22;59073;51.994;4.448;2023-12-29T10:12:57;12.32;81.83
71291;DHT22;59073;51.994;4.448;2023-12-29T10:15:40;12.19;81.97
71291;DHT22;59073;51.994;4.448;2023-12-29T10:18:18;12.19;82.51
71291;DHT22;59073;51.994;4.448;2023-12-29T10:20:59;12.19;82.12
71291;DHT22;59073;51.994;4.448;2023-12-29T10:23:42;12.29;82.13
71291;DHT22;59073;51.994;4.448;2023-12-29T10:26:12;12.30;82.15
71291;DHT22;59073;51.994;4.448;2023-12-29T10:28:38;12.33;81.71
71291;DHT22;59073;51.994;4.448;2023-12-29T10:31:04;12.40;81.73
71291;DHT22;59073;51.994;4.448;2023-12-29T10:33:30;12.34;81.61
71291;DHT22;59073;51.994;4.448;2023-12-29T10:36:02;12.32;81.57
71291;DHT22;59073;51.994;4.448;2023-12-29T10:38:29;12.40;81.41
71291;DHT22;59073;51.994;4.448;2023-12-29T10:41:13;12.39;81.10
71291;DHT22;59073;51.994;4.448;2023-12-29T10:43:40;12.39;81.20
71291;DHT22;59073;51.994;4.448;2023-12-29T10:46:10;12.46;81.03
71291;DHT22;59073;51.994;4.448;2023-12-29T10:48:37;12.36;81.28
71291;DHT22;59073;51.994;4.448;2023-12-29T10:51:03;12.41;81.17
71291;DHT22;59073;51.994;4.448;2023-12-29T10:53:33;12.44;81.11
71291;DHT22;59073;51.994;4.448;2023-12-29T10:55:59;12.53;80.74
71291;DHT22;59073;51.994;4.448;2023-12-29T10:58:26;12.51;80.56
71291;DHT22;59073;51.994;4.448;2023-12-29T11:00:56;12.59;80.47
71291;DHT22;59073;51.994;4.448;2023-12-29T11:03:22;12.53;80.21
71291;DHT22;59073;51.994;4.448;2023-12-29T11:05:48;12.57;80.19
71291;DHT22;59073;51.994;4.448;2023-12-29T11:08:18;12.67;80.23
71291;DHT22;59073;51.994;4.448;2023-12-29T11:10:44;12.74;79.89
71291;DHT22;59073;51.994;4.448;2023-12-29T11:13:11;12.78;79.81
71291;DHT22;59073;51.994;4.448;2023-12-29T11:15:42;12.78;80.25
71291;DHT22;59073;51.994;4.448;2023-12-29T11:18:12;12.74;80.15
71291;DHT22;59073;51.994;4.448;2023-12-29T11:20:38;12.76;80.02
71291;DHT22;59073;51.994;4.448;2023-12-29T11:23:06;12.74;80.34
71291;DHT22;59073;51.994;4.448;2023-12-29T11:25:33;12.78;80.14
71291;DHT22;59073;51.994;4.448;2023-12-29T11:28:00;12.85;80.38
71291;DHT22;59073;51.994;4.448;2023-12-29T11:30:26;12.77;79.91
71291;DHT22;59073;51.994;4.448;2023-12-29T11:33:10;12.73;80.19
71291;DHT22;59073;51.994;4.448;2023-12-29T11:35:51;12.63;79.93
71291;DHT22;59073;51.994;4.448;2023-12-29T11:41:39;12.84;79.48
71291;DHT22;59073;51.994;4.448;2023-12-29T11:44:06;12.88;79.26
71291;DHT22;59073;51.994;4.448;2023-12-29T11:46:38;12.95;78.81
71291;DHT22;59073;51.994;4.448;2023-12-29T11:49:05;12.85;77.74
71291;DHT22;59073;51.994;4.448;2023-12-29T11:51:31;12.83;78.41
71291;DHT22;59073;51.994;4.448;2023-12-29T11:53:57;12.76;77.69
71291;DHT22;59073;51.994;4.448;2023-12-29T11:56:23;12.73;77.91
71291;DHT22;59073;51.994;4.448;2023-12-29T11:58:49;12.83;77.98
71291;DHT22;59073;51.994;4.448;2023-12-29T12:01:33;12.90;77.74
71291;DHT22;59073;51.994;4.448;2023-12-29T12:03:59;12.81;78.22
71291;DHT22;59073;51.994;4.448;2023-12-29T12:06:37;12.94;77.81
71291;DHT22;59073;51.994;4.448;2023-12-29T12:09:22;12.88;77.69
71291;DHT22;59073;51.994;4.448;2023-12-29T12:11:49;12.91;77.67
71291;DHT22;59073;51.994;4.448;2023-12-29T12:17:11;12.78;77.15
71291;DHT22;59073;51.994;4.448;2023-12-29T12:19:36;12.77;76.81
71291;DHT22;59073;51.994;4.448;2023-12-29T12:22:02;12.73;77.27
71291;DHT22;59073;51.994;4.448;2023-12-29T12:24:28;12.76;77.21
71291;DHT22;59073;51.994;4.448;2023-12-29T12:26:57;12.84;77.12
71291;DHT22;59073;51.994;4.448;2023-12-29T12:29:23;12.80;77.36
71291;DHT22;59073;51.994;4.448;2023-12-29T12:31:55;12.80;77.27
71291;DHT22;59073;51.994;4.448;2023-12-29T12:34:21;12.78;77.78
71291;DHT22;59073;51.994;4.448;2023-12-29T12:36:51;12.80;77.68
71291;DHT22;59073;51.994;4.448;2023-12-29T12:39:17;12.81;77.49
71291;DHT22;59073;51.994;4.448;2023-12-29T12:41:43;12.78;77.57
71291;DHT22;59073;51.994;4.448;2023-12-29T12:44:14;12.83;77.60
71291;DHT22;59073;51.994;4.448;2023-12-29T12:46:57;12.84;76.97
71291;DHT22;59073;51.994;4.448;2023-12-29T12:49:24;12.88;76.82
71291;DHT22;59073;51.994;4.448;2023-12-29T12:51:53;12.97;77.11
71291;DHT22;59073;51.994;4.448;2023-12-29T12:54:22;12.94;76.28
71291;DHT22;59073;51.994;4.448;2023-12-29T12:56:49;12.88;76.45
71291;DHT22;59073;51.994;4.448;2023-12-29T12:59:15;12.80;76.71
71291;DHT22;59073;51.994;4.448;2023-12-29T13:01:44;12.59;77.51
71291;DHT22;59073;51.994;4.448;2023-12-29T13:04:11;12.59;76.85
71291;DHT22;59073;51.994;4.448;2023-12-29T13:06:41;12.61;76.96
71291;DHT22;59073;51.994;4.448;2023-12-29T13:09:09;12.53;77.09
71291;DHT22;59073;51.994;4.448;2023-12-29T13:11:40;12.46;77.37
71291;DHT22;59073;51.994;4.448;2023-12-29T13:14:06;12.43;77.16
71291;DHT22;59073;51.994;4.448;2023-12-29T13:16:34;12.37;77.40
71291;DHT22;59073;51.994;4.448;2023-12-29T13:19:22;12.49;76.69
71291;DHT22;59073;51.994;4.448;2023-12-29T13:21:53;12.54;76.67
71291;DHT22;59073;51.994;4.448;2023-12-29T13:24:24;12.53;77.26
71291;DHT22;59073;51.994;4.448;2023-12-29T13:27:02;12.56;76.79
71291;DHT22;59073;51.994;4.448;2023-12-29T13:29:35;12.64;76.93
71291;DHT22;59073;51.994;4.448;2023-12-29T13:32:08;12.73;76.49
71291;DHT22;59073;51.994;4.448;2023-12-29T13:35:02;12.81;76.30
71291;DHT22;59073;51.994;4.448;2023-12-29T13:37:44;12.84;76.76
71291;DHT22;59073;51.994;4.448;2023-12-29T13:40:24;12.90;76.57
71291;DHT22;59073;51.994;4.448;2023-12-29T13:42:56;12.83;76.86
71291;DHT22;59073;51.994;4.448;2023-12-29T13:45:23;12.87;77.00
71291;DHT22;59073;51.994;4.448;2023-12-29T13:47:50;12.81;77.47
71291;DHT22;59073;51.994;4.448;2023-12-29T13:50:16;12.84;77.68
71291;DHT22;59073;51.994;4.448;2023-12-29T13:52:42;12.74;78.43
71291;DHT22;59073;51.994;4.448;2023-12-29T13:55:08;12.70;78.69
71291;DHT22;59073;51.994;4.448;2023-12-29T13:57:34;12.80;78.70
71291;DHT22;59073;51.994;4.448;2023-12-29T14:02:44;12.81;78.57
71291;DHT22;59073;51.994;4.448;2023-12-29T14:05:19;12.73;78.74
71291;DHT22;59073;51.994;4.448;2023-12-29T14:07:55;12.70;79.23
71291;DHT22;59073;51.994;4.448;2023-12-29T14:10:23;12.61;79.24
71291;DHT22;59073;51.994;4.448;2023-12-29T14:12:53;12.60;78.49
71291;DHT22;59073;51.994;4.448;2023-12-29T14:15:19;12.57;78.87
71291;DHT22;59073;51.994;4.448;2023-12-29T14:17:44;12.49;79.01
71291;DHT22;59073;51.994;4.448;2023-12-29T14:20:10;12.40;79.72
71291;DHT22;59073;51.994;4.448;2023-12-29T14:22:35;12.32;80.02
71291;DHT22;59073;51.994;4.448;2023-12-29T14:25:05;12.28;81.02
71291;DHT22;59073;51.994;4.448;2023-12-29T14:27:31;12.25;81.94
71291;DHT22;59073;51.994;4.448;2023-12-29T14:29:56;12.23;82.35
71291;DHT22;59073;51.994;4.448;2023-12-29T14:32:23;12.18;82.03
71291;DHT22;59073;51.994;4.448;2023-12-29T14:34:50;11.86;83.61
71291;DHT22;59073;51.994;4.448;2023-12-29T14:37:20;11.71;83.54
71291;DHT22;59073;51.994;4.448;2023-12-29T14:39:52;11.60;84.44
71291;DHT22;59073;51.994;4.448;2023-12-29T14:42:18;11.50;85.07
71291;DHT22;59073;51.994;4.448;2023-12-29T14:44:47;11.37;84.91
71291;DHT22;59073;51.994;4.448;2023-12-29T14:47:16;11.37;85.74
71291;DHT22;59073;51.994;4.448;2023-12-29T14:49:42;11.38;86.13
71291;DHT22;59073;51.994;4.448;2023-12-29T14:52:08;11.41;86.09
71291;DHT22;59073;51.994;4.448;2023-12-29T14:54:33;11.57;86.17
71291;DHT22;59073;51.994;4.448;2023-12-29T14:56:58;11.54;86.30
71291;DHT22;59073;51.994;4.448;2023-12-29T14:59:24;11.58;86.67
71291;DHT22;59073;51.994;4.448;2023-12-29T15:01:49;11.54;86.55
71291;DHT22;59073;51.994;4.448;2023-12-29T15:04:15;11.41;87.27
71291;DHT22;59073;51.994;4.448;2023-12-29T15:06:41;11.50;87.45
71291;DHT22;59073;51.994;4.448;2023-12-29T15:09:07;11.54;87.03
71291;DHT22;59073;51.994;4.448;2023-12-29T15:11:35;11.48;87.29
71291;DHT22;59073;51.994;4.448;2023-12-29T15:14:02;11.51;87.13
71291;DHT22;59073;51.994;4.448;2023-12-29T15:16:27;11.45;87.37
71291;DHT22;59073;51.994;4.448;2023-12-29T15:18:53;11.45;87.44
71291;DHT22;59073;51.994;4.448;2023-12-29T15:21:18;11.52;87.14
71291;DHT22;59073;51.994;4.448;2023-12-29T15:23:43;11.57;86.73
71291;DHT22;59073;51.994;4.448;2023-12-29T15:26:09;11.51;86.72
71291;DHT22;59073;51.994;4.448;2023-12-29T15:28:34;11.48;86.81
71291;DHT22;59073;51.994;4.448;2023-12-29T15:31:01;11.45;86.96
71291;DHT22;59073;51.994;4.448;2023-12-29T15:33:26;11.50;86.85
71291;DHT22;59073;51.994;4.448;2023-12-29T15:35:51;11.57;86.19
71291;DHT22;59073;51.994;4.448;2023-12-29T15:38:17;11.52;86.74
71291;DHT22;59073;51.994;4.448;2023-12-29T15:40:44;11.52;86.47
71291;DHT22;59073;51.994;4.448;2023-12-29T15:43:10;11.51;86.69